sensor_id;sensor_type;location;lat;lon;timestamp;pressure;altitude;pressure_sealevel;temperature;humidity
72157;BME280;60035;52.122;5.406;2024-03-07T00:02:07;102820.31;;;3.17;100.00
72157;BME280;60035;52.122;5.406;2024-03-07T00:04:38;102816.69;;;3.11;100.00
72157;BME280;60035;52.122;5.406;2024-03-07T00:07:09;102822.56;;;3.08;100.00
72157;BME280;60035;52.122;5.406;2024-03-07T00:09:43;102813.19;;;3.06;100.00
72157;BME280;60035;52.122;5.406;2024-03-07T00:12:15;102818.34;;;3.09;100.00
72157;BME280;60035;52.122;5.406;2024-03-07T00:14:46;102815.00;;;3.10;100.00
72157;BME280;60035;52.122;5.406;2024-03-07T00:17:18;102815.06;;;3.11;100.00
72157;BME280;60035;52.122;5.406;2024-03-07T00:19:50;102820.16;;;3.13;100.00
72157;BME280;60035;52.122;5.406;2024-03-07T00:22:22;102812.56;;;3.13;100.00
72157;BME280;60035;52.122;5.406;2024-03-07T00:24:57;102819.19;;;3.09;100.00
72157;BME280;60035;52.122;5.406;2024-03-07T00:27:28;102816.59;;;3.08;100.00
72157;BME280;60035;52.122;5.406;2024-03-07T00:29:59;102819.91;;;3.05;100.00
72157;BME280;60035;52.122;5.406;2024-03-07T00:32:30;102817.16;;;2.99;100.00
72157;BME280;60035;52.122;5.406;2024-03-07T00:35:04;102818.81;;;2.98;100.00
72157;BME280;60035;52.122;5.406;2024-03-07T00:37:36;102818.03;;;2.99;100.00
72157;BME280;60035;52.122;5.406;2024-03-07T00:40:11;102817.94;;;2.96;100.00
72157;BME280;60035;52.122;5.406;2024-03-07T00:42:42;102820.47;;;2.96;100.00
72157;BME280;60035;52.122;5.406;2024-03-07T00:45:14;102821.28;;;2.95;100.00
72157;BME280;60035;52.122;5.406;2024-03-07T00:47:45;102825.41;;;2.93;100.00
72157;BME280;60035;52.122;5.406;2024-03-07T00:50:17;102820.94;;;2.86;100.00
72157;BME280;60035;52.122;5.406;2024-03-07T00:52:49;102824.19;;;2.82;100.00
72157;BME280;60035;52.122;5.406;2024-03-07T00:55:22;102821.56;;;2.80;100.00
72157;BME280;60035;52.122;5.406;2024-03-07T00:57:53;102816.59;;;2.82;100.00
72157;BME280;60035;52.122;5.406;2024-03-07T01:00:24;102817.41;;;2.81;100.00
72157;BME280;60035;52.122;5.406;2024-03-07T01:02:56;102824.09;;;2.80;100.00
72157;BME280;60035;52.122;5.406;2024-03-07T01:05:27;102813.09;;;2.78;100.00
72157;BME280;60035;52.122;5.406;2024-03-07T01:07:59;102815.63;;;2.78;100.00
72157;BME280;60035;52.122;5.406;2024-03-07T01:10:34;102816.41;;;2.77;100.00
72157;BME280;60035;52.122;5.406;2024-03-07T01:13:06;102814.69;;;2.76;100.00
72157;BME280;60035;52.122;5.406;2024-03-07T01:15:44;102816.31;;;2.74;100.00
72157;BME280;60035;52.122;5.406;2024-03-07T01:18:16;102811.13;;;2.71;100.00
72157;BME280;60035;52.122;5.406;2024-03-07T01:20:49;102810.16;;;2.66;100.00
72157;BME280;60035;52.122;5.406;2024-03-07T01:23:20;102809.81;;;2.57;100.00
72157;BME280;60035;52.122;5.406;2024-03-07T01:25:56;102810.38;;;2.49;100.00
72157;BME280;60035;52.122;5.406;2024-03-07T01:28:28;102811.88;;;2.44;100.00
72157;BME280;60035;52.122;5.406;2024-03-07T01:31:16;102807.44;;;2.37;100.00
72157;BME280;60035;52.122;5.406;2024-03-07T01:34:03;102809.66;;;2.29;100.00
72157;BME280;60035;52.122;5.406;2024-03-07T01:36:50;102810.22;;;2.22;100.00
72157;BME280;60035;52.122;5.406;2024-03-07T01:39:37;102813.47;;;2.18;100.00
72157;BME280;60035;52.122;5.406;2024-03-07T02:06:19;102791.34;;;2.12;100.00
72157;BME280;60035;52.122;5.406;2024-03-07T02:08:50;102790.66;;;2.16;100.00
72157;BME280;60035;52.122;5.406;2024-03-07T02:11:22;102793.38;;;2.21;100.00
72157;BME280;60035;52.122;5.406;2024-03-07T02:13:54;102791.69;;;2.22;100.00
72157;BME280;60035;52.122;5.406;2024-03-07T02:16:25;102802.66;;;2.22;100.00
72157;BME280;60035;52.122;5.406;2024-03-07T02:18:57;102799.31;;;2.23;100.00
72157;BME280;60035;52.122;5.406;2024-03-07T02:21:32;102796.00;;;2.24;100.00
72157;BME280;60035;52.122;5.406;2024-03-07T02:24:03;102791.88;;;2.26;100.00
72157;BME280;60035;52.122;5.406;2024-03-07T02:26:36;102789.41;;;2.28;100.00
72157;BME280;60035;52.122;5.406;2024-03-07T02:29:07;102792.81;;;2.30;100.00
72157;BME280;60035;52.122;5.406;2024-03-07T02:31:39;102790.47;;;2.35;100.00
72157;BME280;60035;52.122;5.406;2024-03-07T02:34:10;102789.69;;;2.36;100.00
72157;BME280;60035;52.122;5.406;2024-03-07T02:36:44;102792.22;;;2.36;100.00
72157;BME280;60035;52.122;5.406;2024-03-07T02:39:15;102790.47;;;2.35;100.00
72157;BME280;60035;52.122;5.406;2024-03-07T02:41:48;102785.25;;;2.30;100.00
72157;BME280;60035;52.122;5.406;2024-03-07T02:44:20;102790.25;;;2.28;100.00
72157;BME280;60035;52.122;5.406;2024-03-07T02:46:51;102786.13;;;2.30;100.00
72157;BME280;60035;52.122;5.406;2024-03-07T02:49:23;102785.44;;;2.35;100.00
72157;BME280;60035;52.122;5.406;2024-03-07T02:51:56;102780.41;;;2.36;100.00
72157;BME280;60035;52.122;5.406;2024-03-07T02:54:28;102778.75;;;2.37;100.00
72157;BME280;60035;52.122;5.406;2024-03-07T02:57:00;102778.69;;;2.35;100.00
72157;BME280;60035;52.122;5.406;2024-03-07T02:59:31;102774.34;;;2.31;100.00
72157;BME280;60035;52.122;5.406;2024-03-07T03:02:04;102773.47;;;2.30;100.00
72157;BME280;60035;52.122;5.406;2024-03-07T03:04:36;102776.88;;;2.31;100.00
72157;BME280;60035;52.122;5.406;2024-03-07T03:07:09;102761.31;;;2.20;100.00
72157;BME280;60035;52.122;5.406;2024-03-07T03:09:40;102770.50;;;2.18;100.00
72157;BME280;60035;52.122;5.406;2024-03-07T03:12:12;102763.78;;;2.19;100.00
72157;BME280;60035;52.122;5.406;2024-03-07T03:14:43;102762.97;;;2.20;100.00
72157;BME280;60035;52.122;5.406;2024-03-07T03:17:15;102758.75;;;2.19;100.00
72157;BME280;60035;52.122;5.406;2024-03-07T03:19:46;102757.09;;;2.21;100.00
72157;BME280;60035;52.122;5.406;2024-03-07T03:22:22;102751.94;;;2.17;100.00
72157;BME280;60035;52.122;5.406;2024-03-07T03:24:54;102760.34;;;2.16;100.00
72157;BME280;60035;52.122;5.406;2024-03-07T03:27:26;102756.03;;;2.14;100.00
72157;BME280;60035;52.122;5.406;2024-03-07T03:29:58;102750.06;;;2.12;100.00
72157;BME280;60035;52.122;5.406;2024-03-07T03:32:29;102741.59;;;2.11;100.00
72157;BME280;60035;52.122;5.406;2024-03-07T03:35:01;102744.88;;;2.09;100.00
72157;BME280;60035;52.122;5.406;2024-03-07T03:37:35;102743.06;;;2.05;100.00
72157;BME280;60035;52.122;5.406;2024-03-07T03:40:08;102737.94;;;2.03;100.00
72157;BME280;60035;52.122;5.406;2024-03-07T03:42:41;102738.66;;;1.99;100.00
72157;BME280;60035;52.122;5.406;2024-03-07T03:45:13;102744.56;;;1.99;100.00
72157;BME280;60035;52.122;5.406;2024-03-07T03:47:45;102739.34;;;1.95;100.00
72157;BME280;60035;52.122;5.406;2024-03-07T03:50:17;102745.19;;;1.94;100.00
72157;BME280;60035;52.122;5.406;2024-03-07T03:52:53;102742.66;;;1.94;100.00
72157;BME280;60035;52.122;5.406;2024-03-07T03:55:25;102746.88;;;1.93;100.00
72157;BME280;60035;52.122;5.406;2024-03-07T03:57:56;102742.63;;;1.92;100.00
72157;BME280;60035;52.122;5.406;2024-03-07T04:00:25;102755.28;;;1.94;100.00
72157;BME280;60035;52.122;5.406;2024-03-07T04:02:57;102740.19;;;1.95;100.00
72157;BME280;60035;52.122;5.406;2024-03-07T04:05:29;102741.00;;;1.94;100.00
72157;BME280;60035;52.122;5.406;2024-03-07T04:08:03;102736.75;;;1.93;100.00
72157;BME280;60035;52.122;5.406;2024-03-07T04:10:35;102744.22;;;1.90;100.00
72157;BME280;60035;52.122;5.406;2024-03-07T04:13:05;102744.06;;;1.86;100.00
72157;BME280;60035;52.122;5.406;2024-03-07T04:15:37;102740.59;;;1.83;100.00
72157;BME280;60035;52.122;5.406;2024-03-07T04:18:11;102737.91;;;1.79;100.00
72157;BME280;60035;52.122;5.406;2024-03-07T04:20:43;102734.56;;;1.80;100.00
72157;BME280;60035;52.122;5.406;2024-03-07T04:23:17;102732.91;;;1.80;100.00
72157;BME280;60035;52.122;5.406;2024-03-07T04:25:51;102734.69;;;1.83;100.00
72157;BME280;60035;52.122;5.406;2024-03-07T04:28:23;102729.69;;;1.85;100.00
72157;BME280;60035;52.122;5.406;2024-03-07T04:30:55;102726.13;;;1.79;100.00
72157;BME280;60035;52.122;5.406;2024-03-07T04:33:26;102739.50;;;1.77;100.00
72157;BME280;60035;52.122;5.406;2024-03-07T04:35:58;102733.59;;;1.76;100.00
72157;BME280;60035;52.122;5.406;2024-03-07T04:38:33;102731.94;;;1.77;100.00
72157;BME280;60035;52.122;5.406;2024-03-07T04:41:05;102736.13;;;1.76;100.00
72157;BME280;60035;52.122;5.406;2024-03-07T04:43:37;102737.72;;;1.74;100.00
72157;BME280;60035;52.122;5.406;2024-03-07T04:46:09;102736.81;;;1.72;100.00
72157;BME280;60035;52.122;5.406;2024-03-07T04:48:40;102729.06;;;1.67;100.00
72157;BME280;60035;52.122;5.406;2024-03-07T04:51:11;102730.59;;;1.64;100.00
72157;BME280;60035;52.122;5.406;2024-03-07T04:53:45;102734.75;;;1.62;100.00
72157;BME280;60035;52.122;5.406;2024-03-07T04:56:16;102734.63;;;1.59;100.00
72157;BME280;60035;52.122;5.406;2024-03-07T04:58:48;102737.06;;;1.57;100.00
72157;BME280;60035;52.122;5.406;2024-03-07T05:01:20;102735.38;;;1.56;100.00
72157;BME280;60035;52.122;5.406;2024-03-07T05:03:52;102731.06;;;1.54;100.00
72157;BME280;60035;52.122;5.406;2024-03-07T05:06:24;102726.03;;;1.54;100.00
72157;BME280;60035;52.122;5.406;2024-03-07T05:08:59;102729.34;;;1.53;100.00
72157;BME280;60035;52.122;5.406;2024-03-07T05:11:31;102727.50;;;1.48;100.00
72157;BME280;60035;52.122;5.406;2024-03-07T05:14:03;102728.25;;;1.46;100.00
72157;BME280;60035;52.122;5.406;2024-03-07T05:16:34;102732.41;;;1.45;100.00
72157;BME280;60035;52.122;5.406;2024-03-07T05:19:05;102734.03;;;1.43;100.00
72157;BME280;60035;52.122;5.406;2024-03-07T05:21:36;102733.09;;;1.41;100.00
72157;BME280;60035;52.122;5.406;2024-03-07T05:24:10;102736.50;;;1.42;100.00
72157;BME280;60035;52.122;5.406;2024-03-07T05:26:42;102738.84;;;1.37;100.00
72157;BME280;60035;52.122;5.406;2024-03-07T05:29:14;102734.53;;;1.35;100.00
72157;BME280;60035;52.122;5.406;2024-03-07T05:31:45;102740.19;;;1.29;100.00
72157;BME280;60035;52.122;5.406;2024-03-07T05:34:17;102735.03;;;1.26;100.00
72157;BME280;60035;52.122;5.406;2024-03-07T05:36:51;102738.22;;;1.22;100.00
72157;BME280;60035;52.122;5.406;2024-03-07T05:39:26;102741.56;;;1.21;100.00
72157;BME280;60035;52.122;5.406;2024-03-07T05:41:57;102743.25;;;1.22;100.00
72157;BME280;60035;52.122;5.406;2024-03-07T05:44:29;102735.69;;;1.22;100.00
72157;BME280;60035;52.122;5.406;2024-03-07T05:47:00;102742.41;;;1.21;100.00
72157;BME280;60035;52.122;5.406;2024-03-07T05:49:31;102738.09;;;1.19;100.00
72157;BME280;60035;52.122;5.406;2024-03-07T05:52:05;102733.00;;;1.17;100.00
72157;BME280;60035;52.122;5.406;2024-03-07T05:54:39;102732.94;;;1.15;100.00
72157;BME280;60035;52.122;5.406;2024-03-07T05:57:12;102738.16;;;1.20;100.00
72157;BME280;60035;52.122;5.406;2024-03-07T05:59:43;102733.84;;;1.17;100.00
72157;BME280;60035;52.122;5.406;2024-03-07T06:02:15;102735.59;;;1.19;100.00
72157;BME280;60035;52.122;5.406;2024-03-07T06:04:48;102742.16;;;1.15;100.00
72157;BME280;60035;52.122;5.406;2024-03-07T06:07:19;102741.97;;;1.10;100.00
72157;BME280;60035;52.122;5.406;2024-03-07T06:09:52;102744.44;;;1.09;100.00
72157;BME280;60035;52.122;5.406;2024-03-07T06:12:24;102742.84;;;1.11;100.00
72157;BME280;60035;52.122;5.406;2024-03-07T06:14:55;102747.16;;;1.13;100.00
72157;BME280;60035;52.122;5.406;2024-03-07T06:17:26;102745.56;;;1.15;100.00
72157;BME280;60035;52.122;5.406;2024-03-07T06:19:57;102743.72;;;1.11;100.00
72157;BME280;60035;52.122;5.406;2024-03-07T06:22:28;102747.88;;;1.11;100.00
72157;BME280;60035;52.122;5.406;2024-03-07T06:25:02;102745.25;;;1.08;100.00
72157;BME280;60035;52.122;5.406;2024-03-07T06:27:34;102750.34;;;1.09;100.00
72157;BME280;60035;52.122;5.406;2024-03-07T06:30:15;102747.03;;;1.10;100.00
72157;BME280;60035;52.122;5.406;2024-03-07T06:32:46;102748.81;;;1.13;100.00
72157;BME280;60035;52.122;5.406;2024-03-07T06:35:18;102751.50;;;1.17;100.00
72157;BME280;60035;52.122;5.406;2024-03-07T06:37:50;102748.19;;;1.19;100.00
72157;BME280;60035;52.122;5.406;2024-03-07T06:40:23;102752.56;;;1.23;100.00
72157;BME280;60035;52.122;5.406;2024-03-07T06:42:59;102749.50;;;1.30;100.00
72157;BME280;60035;52.122;5.406;2024-03-07T06:45:31;102754.72;;;1.35;100.00
72157;BME280;60035;52.122;5.406;2024-03-07T06:48:04;102743.09;;;1.38;100.00
72157;BME280;60035;52.122;5.406;2024-03-07T06:50:37;102750.03;;;1.44;100.00
72157;BME280;60035;52.122;5.406;2024-03-07T06:53:08;102747.69;;;1.48;100.00
72157;BME280;60035;52.122;5.406;2024-03-07T06:55:43;102743.69;;;1.54;100.00
72157;BME280;60035;52.122;5.406;2024-03-07T06:58:14;102744.84;;;1.62;100.00
72157;BME280;60035;52.122;5.406;2024-03-07T07:00:45;102739.91;;;1.65;100.00
72157;BME280;60035;52.122;5.406;2024-03-07T07:03:19;102738.41;;;1.70;100.00
72157;BME280;60035;52.122;5.406;2024-03-07T07:05:51;102733.72;;;1.79;100.00
72157;BME280;60035;52.122;5.406;2024-03-07T07:08:23;102730.53;;;1.85;100.00
72157;BME280;60035;52.122;5.406;2024-03-07T07:10:59;102735.03;;;1.92;100.00
72157;BME280;60035;52.122;5.406;2024-03-07T07:13:31;102737.84;;;2.00;100.00
72157;BME280;60035;52.122;5.406;2024-03-07T07:16:04;102735.59;;;2.08;100.00
72157;BME280;60035;52.122;5.406;2024-03-07T07:18:37;102735.00;;;2.15;100.00
72157;BME280;60035;52.122;5.406;2024-03-07T07:21:09;102737.81;;;2.23;100.00
72157;BME280;60035;52.122;5.406;2024-03-07T07:23:43;102729.59;;;2.28;100.00
72157;BME280;60035;52.122;5.406;2024-03-07T07:26:17;102740.78;;;2.35;100.00
72157;BME280;60035;52.122;5.406;2024-03-07T07:28:49;102734.22;;;2.40;100.00
72157;BME280;60035;52.122;5.406;2024-03-07T07:31:22;102731.91;;;2.46;100.00
72157;BME280;60035;52.122;5.406;2024-03-07T07:33:52;102727.88;;;2.52;100.00
72157;BME280;60035;52.122;5.406;2024-03-07T07:36:24;102734.03;;;2.60;100.00
72157;BME280;60035;52.122;5.406;2024-03-07T07:38:58;102722.47;;;2.66;100.00
72157;BME280;60035;52.122;5.406;2024-03-07T07:41:33;102723.53;;;2.73;100.00
72157;BME280;60035;52.122;5.406;2024-03-07T07:44:05;102725.53;;;2.82;100.00
72157;BME280;60035;52.122;5.406;2024-03-07T07:46:37;102722.28;;;2.86;100.00
72157;BME280;60035;52.122;5.406;2024-03-07T07:49:08;102712.34;;;2.92;100.00
72157;BME280;60035;52.122;5.406;2024-03-07T07:51:39;102717.66;;;3.00;100.00
72157;BME280;60035;52.122;5.406;2024-03-07T07:54:11;102712.78;;;3.06;100.00
72157;BME280;60035;52.122;5.406;2024-03-07T07:56:45;102713.03;;;3.14;100.00
72157;BME280;60035;52.122;5.406;2024-03-07T07:59:17;102709.03;;;3.21;100.00
72157;BME280;60035;52.122;5.406;2024-03-07T08:01:48;102715.19;;;3.29;100.00
72157;BME280;60035;52.122;5.406;2024-03-07T08:04:21;102704.50;;;3.38;100.00
72157;BME280;60035;52.122;5.406;2024-03-07T08:06:52;102712.34;;;3.45;100.00
72157;BME280;60035;52.122;5.406;2024-03-07T08:09:23;102710.78;;;3.50;100.00
72157;BME280;60035;52.122;5.406;2024-03-07T08:11:57;102705.91;;;3.57;100.00
72157;BME280;60035;52.122;5.406;2024-03-07T08:14:30;102708.75;;;3.67;100.00
72157;BME280;60035;52.122;5.406;2024-03-07T08:17:02;102705.63;;;3.76;100.00
72157;BME280;60035;52.122;5.406;2024-03-07T08:19:34;102713.50;;;3.86;100.00
72157;BME280;60035;52.122;5.406;2024-03-07T08:22:04;102717.91;;;3.93;100.00
72157;BME280;60035;52.122;5.406;2024-03-07T08:24:37;102718.13;;;4.00;100.00
72157;BME280;60035;52.122;5.406;2024-03-07T08:27:11;102717.53;;;4.09;100.00
72157;BME280;60035;52.122;5.406;2024-03-07T08:29:43;102717.66;;;4.14;100.00
72157;BME280;60035;52.122;5.406;2024-03-07T08:32:14;102721.28;;;4.22;100.00
72157;BME280;60035;52.122;5.406;2024-03-07T08:34:46;102714.78;;;4.32;100.00
72157;BME280;60035;52.122;5.406;2024-03-07T08:37:18;102711.50;;;4.36;100.00
72157;BME280;60035;52.122;5.406;2024-03-07T08:39:50;102717.56;;;4.41;100.00
72157;BME280;60035;52.122;5.406;2024-03-07T08:42:24;102711.03;;;4.51;100.00
72157;BME280;60035;52.122;5.406;2024-03-07T08:44:56;102712.16;;;4.61;100.00
72157;BME280;60035;52.122;5.406;2024-03-07T08:47:27;102706.53;;;4.73;100.00
72157;BME280;60035;52.122;5.406;2024-03-07T08:49:59;102707.69;;;4.86;100.00
72157;BME280;60035;52.122;5.406;2024-03-07T08:52:34;102705.44;;;4.98;100.00
72157;BME280;60035;52.122;5.406;2024-03-07T08:55:07;102700.56;;;5.07;100.00
72157;BME280;60035;52.122;5.406;2024-03-07T08:57:43;102694.88;;;5.16;100.00
72157;BME280;60035;52.122;5.406;2024-03-07T09:00:17;102692.59;;;5.28;100.00
72157;BME280;60035;52.122;5.406;2024-03-07T09:02:55;102695.31;;;5.36;100.00
72157;BME280;60035;52.122;5.406;2024-03-07T09:05:31;102687.75;;;5.39;100.00
72157;BME280;60035;52.122;5.406;2024-03-07T09:08:04;102692.16;;;5.46;100.00
72157;BME280;60035;52.122;5.406;2024-03-07T09:10:36;102684.84;;;5.62;100.00
72157;BME280;60035;52.122;5.406;2024-03-07T09:13:11;102695.28;;;5.74;100.00
72157;BME280;60035;52.122;5.406;2024-03-07T09:15:43;102686.88;;;5.78;100.00
72157;BME280;60035;52.122;5.406;2024-03-07T09:18:14;102687.78;;;5.82;100.00
72157;BME280;60035;52.122;5.406;2024-03-07T09:20:47;102691.31;;;5.89;100.00
72157;BME280;60035;52.122;5.406;2024-03-07T09:23:18;102692.34;;;5.97;100.00
72157;BME280;60035;52.122;5.406;2024-03-07T09:25:50;102689.09;;;6.03;100.00
72157;BME280;60035;52.122;5.406;2024-03-07T09:28:24;102680.00;;;6.15;100.00
72157;BME280;60035;52.122;5.406;2024-03-07T09:30:55;102677.63;;;6.23;100.00
72157;BME280;60035;52.122;5.406;2024-03-07T09:33:26;102676.88;;;6.30;100.00
72157;BME280;60035;52.122;5.406;2024-03-07T09:36:00;102684.69;;;6.40;100.00
72157;BME280;60035;52.122;5.406;2024-03-07T09:38:32;102674.69;;;6.50;100.00
72157;BME280;60035;52.122;5.406;2024-03-07T09:41:04;102671.34;;;6.53;100.00
72157;BME280;60035;52.122;5.406;2024-03-07T09:43:39;102676.53;;;6.59;100.00
72157;BME280;60035;52.122;5.406;2024-03-07T09:46:12;102667.31;;;6.66;100.00
72157;BME280;60035;52.122;5.406;2024-03-07T09:48:44;102664.09;;;6.78;100.00
72157;BME280;60035;52.122;5.406;2024-03-07T09:51:15;102668.41;;;6.82;100.00
72157;BME280;60035;52.122;5.406;2024-03-07T09:53:49;102662.63;;;6.91;100.00
72157;BME280;60035;52.122;5.406;2024-03-07T09:56:21;102656.72;;;6.95;100.00
72157;BME280;60035;52.122;5.406;2024-03-07T09:58:57;102658.63;;;7.08;100.00
72157;BME280;60035;52.122;5.406;2024-03-07T10:01:33;102655.28;;;7.12;100.00
72157;BME280;60035;52.122;5.406;2024-03-07T10:04:10;102656.28;;;7.24;100.00
72157;BME280;60035;52.122;5.406;2024-03-07T10:06:45;102667.44;;;7.30;100.00
72157;BME280;60035;52.122;5.406;2024-03-07T10:09:21;102653.94;;;7.41;100.00
72157;BME280;60035;52.122;5.406;2024-03-07T10:11:56;102660.97;;;7.59;100.00
72157;BME280;60035;52.122;5.406;2024-03-07T10:14:34;102653.47;;;7.71;100.00
72157;BME280;60035;52.122;5.406;2024-03-07T10:17:07;102651.84;;;7.78;100.00
72157;BME280;60035;52.122;5.406;2024-03-07T10:19:41;102647.75;;;7.92;100.00
72157;BME280;60035;52.122;5.406;2024-03-07T10:22:13;102647.94;;;8.08;100.00
72157;BME280;60035;52.122;5.406;2024-03-07T10:24:52;102642.91;;;8.17;100.00
72157;BME280;60035;52.122;5.406;2024-03-07T10:27:27;102637.09;;;8.32;100.00
72157;BME280;60035;52.122;5.406;2024-03-07T10:30:03;102638.78;;;8.30;100.00
72157;BME280;60035;52.122;5.406;2024-03-07T10:32:35;102629.44;;;8.32;100.00
72157;BME280;60035;52.122;5.406;2024-03-07T10:35:07;102626.03;;;8.31;100.00
72157;BME280;60035;52.122;5.406;2024-03-07T10:37:40;102621.00;;;8.39;100.00
72157;BME280;60035;52.122;5.406;2024-03-07T10:40:16;102620.28;;;8.49;100.00
72157;BME280;60035;52.122;5.406;2024-03-07T10:42:48;102619.53;;;8.63;100.00
72157;BME280;60035;52.122;5.406;2024-03-07T10:45:28;102617.88;;;8.74;100.00
72157;BME280;60035;52.122;5.406;2024-03-07T10:48:03;102614.53;;;8.81;100.00
72157;BME280;60035;52.122;5.406;2024-03-07T10:50:46;102610.34;;;8.93;100.00
72157;BME280;60035;52.122;5.406;2024-03-07T10:53:24;102616.38;;;9.04;100.00
72157;BME280;60035;52.122;5.406;2024-03-07T10:56:18;102608.72;;;9.07;99.73
72157;BME280;60035;52.122;5.406;2024-03-07T10:58:58;102601.94;;;9.12;98.31
72157;BME280;60035;52.122;5.406;2024-03-07T11:01:42;102606.19;;;9.12;97.17
72157;BME280;60035;52.122;5.406;2024-03-07T11:04:22;102599.41;;;9.15;96.11
72157;BME280;60035;52.122;5.406;2024-03-07T11:06:54;102607.84;;;9.02;94.86
72157;BME280;60035;52.122;5.406;2024-03-07T11:09:27;102601.78;;;8.84;95.52
72157;BME280;60035;52.122;5.406;2024-03-07T11:12:01;102603.56;;;8.95;96.90
72157;BME280;60035;52.122;5.406;2024-03-07T11:14:36;102596.81;;;9.14;97.71
72157;BME280;60035;52.122;5.406;2024-03-07T11:17:11;102589.22;;;9.25;97.01
72157;BME280;60035;52.122;5.406;2024-03-07T11:19:43;102584.13;;;9.29;96.02
72157;BME280;60035;52.122;5.406;2024-03-07T11:22:28;102587.56;;;9.38;95.88
72157;BME280;60035;52.122;5.406;2024-03-07T11:25:01;102579.06;;;9.46;94.56
72157;BME280;60035;52.122;5.406;2024-03-07T11:27:36;102579.94;;;9.52;92.60
72157;BME280;60035;52.122;5.406;2024-03-07T11:30:10;102578.25;;;9.63;92.43
72157;BME280;60035;52.122;5.406;2024-03-07T11:32:45;102574.84;;;9.62;90.20
72157;BME280;60035;52.122;5.406;2024-03-07T11:35:17;102579.97;;;9.67;90.55
72157;BME280;60035;52.122;5.406;2024-03-07T11:37:56;102578.31;;;9.84;91.04
72157;BME280;60035;52.122;5.406;2024-03-07T11:40:50;102577.50;;;10.13;90.98
72157;BME280;60035;52.122;5.406;2024-03-07T11:43:26;102573.22;;;10.31;90.70
72157;BME280;60035;52.122;5.406;2024-03-07T11:45:59;102568.09;;;10.60;90.17
72157;BME280;60035;52.122;5.406;2024-03-07T11:48:33;102566.38;;;10.58;88.74
72157;BME280;60035;52.122;5.406;2024-03-07T11:51:04;102573.22;;;10.57;88.98
72157;BME280;60035;52.122;5.406;2024-03-07T11:53:38;102572.38;;;10.55;87.61
72157;BME280;60035;52.122;5.406;2024-03-07T11:56:10;102570.66;;;10.53;86.66
72157;BME280;60035;52.122;5.406;2024-03-07T11:58:44;102563.81;;;10.58;87.25
72157;BME280;60035;52.122;5.406;2024-03-07T12:01:22;102554.41;;;10.74;86.27
72157;BME280;60035;52.122;5.406;2024-03-07T12:03:57;102556.09;;;10.79;86.03
72157;BME280;60035;52.122;5.406;2024-03-07T12:06:33;102543.22;;;10.96;86.93
72157;BME280;60035;52.122;5.406;2024-03-07T12:09:05;102547.44;;;11.08;85.04
72157;BME280;60035;52.122;5.406;2024-03-07T12:11:44;102532.03;;;11.21;84.47
72157;BME280;60035;52.122;5.406;2024-03-07T12:14:20;102526.81;;;11.33;82.85
72157;BME280;60035;52.122;5.406;2024-03-07T12:16:52;102520.69;;;11.57;82.84
72157;BME280;60035;52.122;5.406;2024-03-07T12:19:27;102530.03;;;11.67;82.17
72157;BME280;60035;52.122;5.406;2024-03-07T12:22:03;102513.72;;;11.78;81.02
72157;BME280;60035;52.122;5.406;2024-03-07T12:24:34;102503.47;;;11.72;79.25
72157;BME280;60035;52.122;5.406;2024-03-07T12:27:07;102508.75;;;11.53;76.65
72157;BME280;60035;52.122;5.406;2024-03-07T12:29:40;102504.53;;;11.44;76.84
72157;BME280;60035;52.122;5.406;2024-03-07T12:32:12;102497.72;;;11.43;76.65
72157;BME280;60035;52.122;5.406;2024-03-07T12:34:46;102495.16;;;11.39;75.46
72157;BME280;60035;52.122;5.406;2024-03-07T12:37:21;102485.00;;;11.23;75.06
72157;BME280;60035;52.122;5.406;2024-03-07T12:39:55;102483.25;;;11.28;77.47
72157;BME280;60035;52.122;5.406;2024-03-07T12:42:33;102478.81;;;11.55;77.55
72157;BME280;60035;52.122;5.406;2024-03-07T12:45:06;102471.00;;;11.69;78.33
72157;BME280;60035;52.122;5.406;2024-03-07T12:47:42;102462.34;;;11.82;76.61
72157;BME280;60035;52.122;5.406;2024-03-07T12:50:17;102447.06;;;11.69;75.02
72157;BME280;60035;52.122;5.406;2024-03-07T12:52:50;102459.06;;;11.63;75.58
72157;BME280;60035;52.122;5.406;2024-03-07T12:55:21;102458.16;;;11.71;75.52
72157;BME280;60035;52.122;5.406;2024-03-07T12:57:53;102455.59;;;11.69;75.09
72157;BME280;60035;52.122;5.406;2024-03-07T13:00:24;102452.06;;;11.82;76.05
72157;BME280;60035;52.122;5.406;2024-03-07T13:02:57;102452.84;;;11.89;75.35
72157;BME280;60035;52.122;5.406;2024-03-07T13:05:32;102456.31;;;11.87;75.31
72157;BME280;60035;52.122;5.406;2024-03-07T13:08:05;102447.75;;;11.88;74.57
72157;BME280;60035;52.122;5.406;2024-03-07T13:10:41;102453.72;;;11.87;75.11
72157;BME280;60035;52.122;5.406;2024-03-07T13:13:17;102429.84;;;11.80;74.74
72157;BME280;60035;52.122;5.406;2024-03-07T13:15:48;102428.09;;;11.83;74.84
72157;BME280;60035;52.122;5.406;2024-03-07T13:18:23;102435.75;;;11.90;75.56
72157;BME280;60035;52.122;5.406;2024-03-07T13:20:57;102430.59;;;11.91;74.83
72157;BME280;60035;52.122;5.406;2024-03-07T13:23:32;102430.59;;;11.93;74.22
72157;BME280;60035;52.122;5.406;2024-03-07T13:26:08;102425.41;;;12.02;74.29
72157;BME280;60035;52.122;5.406;2024-03-07T13:28:45;102427.91;;;12.08;73.45
72157;BME280;60035;52.122;5.406;2024-03-07T13:31:16;102422.88;;;11.99;73.92
72157;BME280;60035;52.122;5.406;2024-03-07T13:33:48;102426.41;;;11.84;73.40
72157;BME280;60035;52.122;5.406;2024-03-07T13:36:22;102411.06;;;11.78;74.43
72157;BME280;60035;52.122;5.406;2024-03-07T13:38:54;102417.66;;;12.05;75.17
72157;BME280;60035;52.122;5.406;2024-03-07T13:41:27;102413.41;;;12.04;74.41
72157;BME280;60035;52.122;5.406;2024-03-07T13:43:58;102407.47;;;11.93;74.80
72157;BME280;60035;52.122;5.406;2024-03-07T13:46:30;102408.34;;;11.96;74.69